createdAt,value
2023-03-20T00:03:06.476Z,14.48
2023-03-20T00:07:18.826Z,13.80
2023-03-20T00:11:41.597Z,13.20
2023-03-20T00:15:55.077Z,11.98
2023-03-20T00:20:14.211Z,11.88
2023-03-20T00:24:26.737Z,12.13
2023-03-20T00:28:44.487Z,11.13
2023-03-20T00:32:58.967Z,12.38
2023-03-20T00:37:12.094Z,10.50
2023-03-20T00:41:43.544Z,12.15
2023-03-20T00:45:56.346Z,11.45
2023-03-20T00:50:21.069Z,11.20
2023-03-20T00:54:33.676Z,10.43
2023-03-20T00:58:46.110Z,10.15
2023-03-20T01:02:59.328Z,8.80
2023-03-20T01:07:15.156Z,8.77
2023-03-20T01:11:28.202Z,8.65
2023-03-20T01:15:41.310Z,8.77
2023-03-20T01:19:54.084Z,8.82
2023-03-20T01:24:06.753Z,8.50
2023-03-20T01:28:24.059Z,9.05
2023-03-20T01:32:36.472Z,8.70
2023-03-20T01:36:58.411Z,8.98
2023-03-20T01:41:15.221Z,8.90
2023-03-20T01:45:33.579Z,9.07
2023-03-20T01:50:11.154Z,9.40
2023-03-20T01:54:38.032Z,8.50
2023-03-20T01:59:00.630Z,10.30
2023-03-20T02:03:13.366Z,10.18
2023-03-20T02:07:51.481Z,10.18
2023-03-20T02:12:05.220Z,10.30
2023-03-20T02:16:18.436Z,9.57
2023-03-20T02:20:55.808Z,10.02
2023-03-20T02:25:17.719Z,9.40
2023-03-20T02:29:50.987Z,9.30
2023-03-20T02:34:20.751Z,9.52
2023-03-20T02:39:06.834Z,8.90
2023-03-20T02:43:39.367Z,8.77
2023-03-20T02:48:25.054Z,8.85
2023-03-20T02:53:13.099Z,8.23
2023-03-20T02:58:06.114Z,8.38
2023-03-20T03:02:28.046Z,7.90
2023-03-20T03:06:45.153Z,8.20
2023-03-20T03:11:08.975Z,8.15
2023-03-20T03:15:30.786Z,7.68
2023-03-20T03:19:50.311Z,7.90
2023-03-20T03:24:03.053Z,8.10
2023-03-20T03:28:37.873Z,8.35
2023-03-20T03:33:02.732Z,8.10
2023-03-20T03:37:29.738Z,8.30
2023-03-20T03:41:48.453Z,8.27
2023-03-20T03:46:14.402Z,8.10
2023-03-20T03:50:31.969Z,8.43
2023-03-20T03:54:49.919Z,11.27
2023-03-20T03:59:25.025Z,12.05
2023-03-20T04:03:56.520Z,12.55
2023-03-20T04:08:09.315Z,12.27
2023-03-20T04:12:37.028Z,11.32
2023-03-20T04:16:51.069Z,11.80
2023-03-20T04:21:04.638Z,11.63
2023-03-20T04:25:23.295Z,11.57
2023-03-20T04:29:39.350Z,11.25
2023-03-20T04:34:14.655Z,10.10
2023-03-20T04:38:51.236Z,8.63
2023-03-20T04:43:03.942Z,8.52
2023-03-20T04:47:17.068Z,9.02
2023-03-20T04:51:29.737Z,9.05
2023-03-20T04:55:44.425Z,8.65
2023-03-20T04:59:57.990Z,8.25
2023-03-20T05:04:10.765Z,8.63
2023-03-20T05:08:23.197Z,9.32
2023-03-20T05:12:39.921Z,9.73
2023-03-20T05:17:12.928Z,9.57
2023-03-20T05:21:48.090Z,8.05
2023-03-20T05:26:18.765Z,9.00
2023-03-20T05:30:49.888Z,10.90
2023-03-20T05:35:25.377Z,9.65
2023-03-20T05:39:44.600Z,9.10
2023-03-20T05:44:13.105Z,8.70
2023-03-20T05:48:35.642Z,9.75
2023-03-20T05:53:00.106Z,10.05
2023-03-20T05:57:28.549Z,10.02
2023-03-20T06:01:50.139Z,9.60
2023-03-20T06:06:09.268Z,10.45
2023-03-20T06:10:22.488Z,8.68
2023-03-20T06:14:36.522Z,8.07
2023-03-20T06:18:52.818Z,7.53
2023-03-20T06:23:05.627Z,8.00
2023-03-20T06:27:18.415Z,7.65
2023-03-20T06:31:33.901Z,7.05
2023-03-20T06:35:48.631Z,7.38
2023-03-20T06:40:01.217Z,11.10
2023-03-20T06:44:15.614Z,8.90
2023-03-20T06:48:51.922Z,11.48
2023-03-20T06:53:07.273Z,13.20
2023-03-20T06:57:27.680Z,13.15
2023-03-20T07:01:40.748Z,11.50
2023-03-20T07:05:53.310Z,9.90
2023-03-20T07:10:08.163Z,8.73
2023-03-20T07:14:20.781Z,7.55
2023-03-20T07:18:47.406Z,8.45
2023-03-20T07:23:00.108Z,8.68
2023-03-20T07:27:16.777Z,9.05
2023-03-20T07:31:31.488Z,8.70
2023-03-20T07:36:07.166Z,7.88
2023-03-20T07:40:19.894Z,7.90
2023-03-20T07:44:39.155Z,8.95
2023-03-20T07:48:58.432Z,8.85
2023-03-20T07:53:10.902Z,8.75
2023-03-20T07:57:23.303Z,8.85
2023-03-20T08:01:35.777Z,7.72
2023-03-20T08:05:48.089Z,8.30
2023-03-20T08:10:00.570Z,8.07
2023-03-20T08:14:13.365Z,8.00
2023-03-20T08:18:25.780Z,8.05
2023-03-20T08:22:38.243Z,8.48
2023-03-20T08:26:50.719Z,9.23
2023-03-20T08:31:04.143Z,9.95
2023-03-20T08:35:32.166Z,11.05
2023-03-20T08:39:47.525Z,10.35
2023-03-20T08:44:01.842Z,11.65
2023-03-20T08:48:14.263Z,10.48
2023-03-20T08:52:27.761Z,7.25
2023-03-20T08:56:40.167Z,8.90
2023-03-20T09:00:52.450Z,8.60
2023-03-20T09:05:05.065Z,8.43
2023-03-20T09:09:20.281Z,8.80
2023-03-20T09:13:32.693Z,7.88
2023-03-20T09:17:45.160Z,8.63
2023-03-20T09:21:57.685Z,7.10
2023-03-20T09:26:10.107Z,7.13
2023-03-20T09:30:24.215Z,6.47
2023-03-20T09:34:36.570Z,6.28
2023-03-20T09:38:49.205Z,7.03
2023-03-20T09:43:27.288Z,6.53
2023-03-20T09:48:17.276Z,6.97
2023-03-20T09:52:35.004Z,6.63
2023-03-20T09:56:47.490Z,7.05
2023-03-20T10:01:03.319Z,6.85
2023-03-20T10:05:39.453Z,6.55
2023-03-20T10:09:51.842Z,6.38
2023-03-20T10:14:19.016Z,6.20
2023-03-20T10:18:36.598Z,5.60
2023-03-20T10:22:55.037Z,6.15
2023-03-20T10:27:21.357Z,5.65
2023-03-20T10:31:52.200Z,5.18
2023-03-20T10:36:34.208Z,5.47
2023-03-20T10:40:47.636Z,4.72
2023-03-20T10:45:19.944Z,3.60
2023-03-20T10:49:42.436Z,4.63
2023-03-20T10:54:01.624Z,4.18
2023-03-20T10:58:37.682Z,3.75
2023-03-20T11:02:50.296Z,3.67
2023-03-20T11:07:24.177Z,3.85
2023-03-20T11:11:36.703Z,4.13
2023-03-20T11:15:49.067Z,4.45
2023-03-20T11:20:06.129Z,6.20
2023-03-20T11:24:27.082Z,4.57
2023-03-20T11:28:48.519Z,5.20
2023-03-20T11:33:03.702Z,5.93
2023-03-20T11:37:35.937Z,5.45
2023-03-20T11:41:52.467Z,5.80
2023-03-20T11:46:06.675Z,6.07
2023-03-20T11:50:36.946Z,6.05
2023-03-20T11:54:53.388Z,5.47
2023-03-20T11:59:18.536Z,5.43
2023-03-20T12:03:56.078Z,4.88
2023-03-20T12:08:20.439Z,5.15
2023-03-20T12:12:45.942Z,4.30
2023-03-20T12:17:13.059Z,4.53
2023-03-20T12:21:41.417Z,3.78
2023-03-20T12:26:14.017Z,4.10
2023-03-20T12:30:51.867Z,3.92
2023-03-20T12:35:25.366Z,4.82
2023-03-20T12:39:42.732Z,4.80
2023-03-20T12:44:10.191Z,4.30
2023-03-20T12:48:56.685Z,4.65
2023-03-20T12:53:33.250Z,4.35
2023-03-20T12:58:03.999Z,4.30
2023-03-20T13:02:40.642Z,4.75
2023-03-20T13:06:55.070Z,4.82
2023-03-20T13:11:31.510Z,4.20
2023-03-20T13:15:59.158Z,4.07
2023-03-20T13:20:33.008Z,3.45
2023-03-20T13:24:50.920Z,3.42
2023-03-20T13:29:08.932Z,4.15
2023-03-20T13:33:27.187Z,3.72
2023-03-20T13:37:47.837Z,4.32
2023-03-20T13:42:02.081Z,4.40
2023-03-20T13:46:39.876Z,4.20
2023-03-20T13:51:15.629Z,3.60
2023-03-20T13:55:36.970Z,3.50
2023-03-20T14:00:09.234Z,3.55
2023-03-20T14:04:24.460Z,3.55
2023-03-20T14:08:37.239Z,3.92
2023-03-20T14:12:59.162Z,3.92
2023-03-20T14:17:26.974Z,3.30
2023-03-20T14:21:39.394Z,3.63
2023-03-20T14:25:55.343Z,4.00
2023-03-20T14:30:46.628Z,4.22
2023-03-20T14:35:28.137Z,4.03
2023-03-20T14:39:57.712Z,4.00
2023-03-20T14:44:36.443Z,4.13
2023-03-20T14:48:53.571Z,4.72
2023-03-20T14:53:21.534Z,4.65
2023-03-20T14:57:52.843Z,4.70
2023-03-20T15:02:06.969Z,4.90
2023-03-20T15:06:22.981Z,4.60
2023-03-20T15:10:44.261Z,5.43
2023-03-20T15:15:01.652Z,5.63
2023-03-20T15:19:19.390Z,5.55
2023-03-20T15:23:34.553Z,5.60
2023-03-20T15:27:52.093Z,5.88
2023-03-20T15:32:14.381Z,6.38
2023-03-20T15:36:35.067Z,7.90
2023-03-20T15:40:51.496Z,8.18
2023-03-20T15:45:22.477Z,7.25
2023-03-20T15:49:35.000Z,8.77
2023-03-20T15:53:51.602Z,9.00
2023-03-20T15:58:06.039Z,7.63
2023-03-20T16:02:21.517Z,8.13
2023-03-20T16:06:46.819Z,7.70
2023-03-20T16:11:17.049Z,8.38
2023-03-20T16:15:32.987Z,9.95
2023-03-20T16:19:46.366Z,10.55
2023-03-20T16:24:01.840Z,13.23
2023-03-20T16:28:17.257Z,11.90
2023-03-20T16:32:39.533Z,11.15
2023-03-20T16:36:57.879Z,10.00
2023-03-20T16:41:34.138Z,9.43
2023-03-20T16:45:55.337Z,8.77
2023-03-20T16:50:24.678Z,8.98
2023-03-20T16:54:37.544Z,10.80
2023-03-20T16:58:50.080Z,11.65
2023-03-20T17:03:17.738Z,13.90
2023-03-20T17:07:34.543Z,14.10
2023-03-20T17:11:51.890Z,15.85
2023-03-20T17:16:04.592Z,14.07
2023-03-20T17:20:24.894Z,14.93
2023-03-20T17:24:37.374Z,13.30
2023-03-20T17:28:49.977Z,14.02
2023-03-20T17:33:06.143Z,13.75
2023-03-20T17:37:25.363Z,13.43
2023-03-20T17:41:38.573Z,16.60
2023-03-20T17:45:51.071Z,22.08
2023-03-20T17:50:03.514Z,25.83
2023-03-20T17:54:16.757Z,24.33
2023-03-20T17:58:29.346Z,25.63
2023-03-20T18:02:41.679Z,28.80
2023-03-20T18:06:54.260Z,25.27
2023-03-20T18:11:08.456Z,26.33
2023-03-20T18:15:24.138Z,27.65
2023-03-20T18:19:36.640Z,27.73
2023-03-20T18:23:49.003Z,29.13
2023-03-20T18:28:02.806Z,31.23
2023-03-20T18:32:15.309Z,29.10
2023-03-20T18:36:28.292Z,31.38
2023-03-20T18:40:42.928Z,29.83
2023-03-20T18:44:55.367Z,30.85
2023-03-20T18:49:10.661Z,35.38
2023-03-20T18:53:23.261Z,30.02
2023-03-20T18:57:36.866Z,29.92
2023-03-20T19:01:49.673Z,25.77
2023-03-20T19:06:02.148Z,27.08
2023-03-20T19:10:41.621Z,28.38
2023-03-20T19:14:53.990Z,26.05
2023-03-20T19:19:08.047Z,24.40
2023-03-20T19:23:23.524Z,28.52
2023-03-20T19:27:36.122Z,29.38
2023-03-20T19:31:48.613Z,30.73
2023-03-20T19:36:04.376Z,33.03
2023-03-20T19:40:28.878Z,38.40
2023-03-20T19:44:41.504Z,40.92
2023-03-20T19:48:57.834Z,41.60
2023-03-20T19:53:15.739Z,40.28
2023-03-20T19:57:29.191Z,44.10
2023-03-20T20:01:41.643Z,42.63
2023-03-20T20:05:54.553Z,43.90
2023-03-20T20:10:07.448Z,44.53
2023-03-20T20:14:23.638Z,46.83
2023-03-20T20:18:36.830Z,42.90
2023-03-20T20:22:49.970Z,45.25
2023-03-20T20:27:16.280Z,45.60
2023-03-20T20:31:32.035Z,40.10
2023-03-20T20:36:11.489Z,31.63
2023-03-20T20:40:19.415Z,33.55
2023-03-20T20:44:31.956Z,35.28
2023-03-20T20:48:44.338Z,33.78
2023-03-20T20:52:58.059Z,36.25
2023-03-20T20:57:12.274Z,39.03
2023-03-20T21:01:24.828Z,37.67
2023-03-20T21:05:43.219Z,39.47
2023-03-20T21:09:55.854Z,37.60
2023-03-20T21:14:08.232Z,41.40
2023-03-20T21:18:21.134Z,48.15
2023-03-20T21:22:36.433Z,46.22
2023-03-20T21:26:50.700Z,40.85
2023-03-20T21:31:24.152Z,35.05
2023-03-20T21:35:38.667Z,26.38
2023-03-20T21:39:52.553Z,24.38
2023-03-20T21:44:06.838Z,22.88
2023-03-20T21:48:50.034Z,21.48
2023-03-20T21:53:49.672Z,26.08
2023-03-20T22:02:10.899Z,22.83
2023-03-20T22:11:45.256Z,21.00
2023-03-20T22:16:16.680Z,21.67
2023-03-20T22:25:28.279Z,22.80
2023-03-20T22:29:58.642Z,21.42
2023-03-20T22:43:28.069Z,23.08
2023-03-20T22:47:26.027Z,23.30
2023-03-20T22:51:44.200Z,26.10
2023-03-20T22:56:12.283Z,28.77
2023-03-20T23:00:25.026Z,31.30
2023-03-20T23:04:37.512Z,30.08
2023-03-20T23:08:56.579Z,28.55
2023-03-20T23:13:09.748Z,27.42
2023-03-20T23:17:22.547Z,22.25
2023-03-20T23:21:35.579Z,21.23
2023-03-20T23:25:48.995Z,17.10
2023-03-20T23:30:03.658Z,19.50
2023-03-20T23:34:17.969Z,21.10
2023-03-20T23:38:32.693Z,20.90
2023-03-20T23:42:45.051Z,23.80
2023-03-20T23:46:57.781Z,25.38
2023-03-20T23:51:11.051Z,27.52
2023-03-20T23:55:23.394Z,23.33
2023-03-20T23:59:37.563Z,17.25
